x

West Dixon Entrance (46205) Wave Buoy

2:00am - Tue 2nd Sep 2014 All times are PDT. -7 hours from GMT.

  • Sig Wave height 6.9ft
  • Peak Period 10s
  • Wind
    18mph, 25mph gusts
  • Sea Temp 60°f
  • Air Temp 58°f
  • Sea Pressure 1015.6mb
  • West Dixon Entrance
  • West Dixon Entrance

More Historic Weather Station data

Upgrade to MSW Pro to gain access to the past 30 days of data for over 8000 Wavebouys and Weather Stations around the globe.

Join Pro

Comparision Forecast

View Surf forecast
   
Tue 09/02 2:00am 7ft 10s 18 25 mph 1015.6mb 60f 58f
1:00am 7ft 10s 18 20 mph 1015.3mb 60f 59f
12:00am 7.5ft 10s 16 20 mph 1014.9mb 60f 59f
Mon 09/01 11:00pm 8.5ft 10s 18 22 mph 1014.6mb 60f 59f
10:00pm 8.5ft 10s 18 22 mph 1014.3mb 60f 59f
9:00pm 8.5ft 10s 18 20 mph 1014.1mb 60f 59f
8:00pm 9ft 9s 16 20 mph 1013.8mb 61f 59f
7:00pm 9ft 9s 16 20 mph 1013.6mb 61f 59f
6:00pm 10ft 10s 16 18 mph 1013.5mb 61f 60f
5:00pm 9ft 10s 16 20 mph 1013.5mb 61f 60f
4:00pm 10.5ft 9s 16 20 mph 1013.6mb 61f 60f
3:00pm 9.5ft 10s 18 20 mph 1013.6mb 61f 59f
2:00pm 10ft 9s 20 25 mph 1013.3mb 61f 60f
1:00pm 10ft 10s 20 25 mph 1013.1mb 61f 59f
12:00pm 10ft 10s 20 25 mph 1012.6mb 61f 59f
11:00am 9ft 8s 18 22 mph 1012.1mb 61f 60f
10:00am 9ft 9s 22 25 mph 1011.3mb 61f 60f
9:00am 9.5ft 9s 20 25 mph 1010.7mb 61f 59f
7:00am 8.5ft 7s 20 22 mph 1009.7mb 60f 60f
6:00am 8.5ft 8s 20 25 mph 1009.1mb 60f 59f
5:00am 9ft 8s 22 27 mph 1008.7mb 61f 59f
4:00am 9ft 8s 20 27 mph 1008.6mb 61f 60f
3:00am 8.5ft 8s 20 25 mph 1008.4mb 61f 59f
2:00am 8ft 7s 22 29 mph 1008.3mb 61f 60f
1:00am 8ft 8s 22 25 mph 1007.9mb 62f 60f
12:00am 8ft 7s 22 29 mph 1007.3mb 62f 60f
Sun 08/31 11:00pm 8.5ft 7s 22 27 mph 1006.7mb 62f 60f
10:00pm 8ft 7s 22 27 mph 1006.1mb 62f 60f
9:00pm 8ft 7s 22 27 mph 1005.4mb 62f 60f
8:00pm 7.5ft 7s 25 29 mph 1004.7mb 62f 60f
7:00pm 7.5ft 7s 25 27 mph 1004.2mb 62f 60f
6:00pm 7ft 7s 27 31 mph 1003.5mb 62f 60f
5:00pm 6.5ft 7s 22 27 mph 1002.9mb 62f 60f
3:00pm 8ft 6s 16 18 mph 1002.3mb 62f 61f
2:00pm 8ft 7s 13 18 mph 1002.4mb 62f 60f
1:00pm 8.5ft 6s 18 22 mph 1002.4mb 62f 60f
12:00pm 8ft 6s 29 36 mph 1002.2mb 61f 59f
11:00am 6.5ft 6s 22 31 mph 1004.1mb 61f 58f
10:00am 7ft 13s 20 25 mph 1004.4mb 61f 57f
9:00am 6.5ft 12s 22 29 mph 1005.1mb 61f 56f
8:00am 6ft 8s 22 29 mph 1005.4mb 61f 58f
7:00am 6ft 8s 16 18 mph 1006.3mb 62f 59f
6:00am 6ft 8s 13 18 mph 1007.4mb 62f 56f
5:00am 6ft 14s 16 27 mph 1007.8mb 62f 58f
4:00am 6ft 8s 18 22 mph 1008.5mb 62f 57f
3:00am 6ft 9s 18 20 mph 1008.9mb 62f 59f
2:00am 6.5ft 9s 13 18 mph 1009.4mb 62f 59f
1:00am 7ft 8s 13 16 mph 1009.7mb 61f 59f
12:00am 7.5ft 8s 16 18 mph 1010mb 61f 59f
Sat 08/30 11:00pm 7.5ft 8s 16 18 mph 1010.3mb 62f 60f
10:00pm 7.5ft 9s 16 18 mph 1010.3mb 62f 60f
9:00pm 8ft 9s 16 18 mph 1010mb 62f 60f
8:00pm 7.5ft 9s 13 18 mph 1010mb 62f 60f
7:00pm 7.5ft 8s 13 18 mph 1010.1mb 62f 60f
6:00pm 7ft 9s 13 16 mph 1010mb 62f 60f
5:00pm 8ft 9s 16 18 mph 1010mb 62f 60f
4:00pm 8ft 8s 18 20 mph 1009.9mb 62f 60f
3:00pm 7.5ft 9s 18 20 mph 1009.5mb 62f 60f
2:00pm 7ft 10s 18 20 mph 1009.3mb 62f 60f
1:00pm 7ft 8s 13 18 mph 1008.9mb 62f 60f
12:00pm 7ft 8s 16 18 mph 1008.4mb 62f 59f
11:00am 8ft 10s 16 22 mph 1007.8mb 62f 58f
10:00am 8.5ft 8s 16 18 mph 1007.2mb 61f 60f
9:00am 8ft 9s 13 16 mph 1006.8mb 61f 60f
8:00am 7.5ft 9s 13 16 mph 1006.3mb 61f 60f
7:00am 9ft 10s 11 16 mph 1005.8mb 61f 59f
6:00am 9ft 10s 13 16 mph 1005.3mb 62f 58f
5:00am 8ft 10s 9 13 mph 1005mb 62f 60f
4:00am 8ft 10s 11 13 mph 1004.6mb 62f 59f
3:00am 8ft 10s 11 13 mph 1004.3mb 61f 59f
2:00am 8ft 10s 11 13 mph 1004.1mb 61f 60f
1:00am 7.5ft 11s 11 13 mph 1003.8mb 62f 60f
12:00am 8ft 11s 13 18 mph 1003.7mb 62f 60f
Fri 08/29 11:00pm 8ft 11s 13 16 mph 1003.5mb 61f 60f
10:00pm 9ft 9s 13 18 mph 1003.2mb 61f 60f
9:00pm 9ft 8s 16 18 mph 1002.8mb 61f 60f
8:00pm 9ft 9s 18 20 mph 1002.3mb 61f 60f
7:00pm 9ft 11s 18 20 mph 1002.1mb 61f 60f
6:00pm 9ft 9s 18 22 mph 1001.8mb 62f 59f
5:00pm 9.5ft 9s 16 20 mph 1001.6mb 62f 60f
4:00pm 9.5ft 10s 13 18 mph 1001.1mb 62f 60f
3:00pm 10ft 10s 16 20 mph 1000.6mb 62f 60f
2:00pm 10ft 11s 18 22 mph 1000.1mb 61f 60f
1:00pm 10.5ft 10s 20 22 mph 1000.4mb 61f 58f
12:00pm 10ft 10s 20 25 mph 1000.5mb 61f 59f
11:00am 11ft 9s 22 27 mph 1000.7mb 61f 58f